Date,TemperatureHighF,TemperatureAvgF,TemperatureLowF,DewpointHighF,DewpointAvgF,DewpointLowF,HumidityHigh,HumidityAvg,HumidityLow,PressureMaxIn,PressureMinIn,WindSpeedMaxMPH,WindSpeedAvgMPH,GustSpeedMaxMPH,PrecipitationSumIn
2014-1-1,14.2,10.6,2.6,10.5,4.2,-1.2,86,75,63,31.47,31.34,5,0,0,0.00
2014-1-2,13.5,9.8,0.9,9.6,4.4,-4.1,87,78,69,31.36,31.21,10,1,14,0.00
2014-1-3,14.4,5.7,-6.6,4.8,-1.0,-9.1,86,73,61,31.48,31.07,8,1,0,0.00
2014-1-4,30.7,23.0,12.8,26.9,16.5,4.7,94,76,63,31.06,30.81,5,1,0,0.00
2014-1-5,28.5,23.2,16.3,27.2,21.3,13.9,95,92,89,31.03,30.63,2,0,0,0.00
2014-1-6,15.8,5.3,-9.1,13.4,1.9,-11.8,91,84,74,31.05,30.63,14,1,15,0.00
2014-1-7,6.5,-3.3,-13.8,1.2,-6.8,-16.0,83,81,77,31.34,31.06,3,0,0,0.00
2014-1-8,17.3,6.9,-2.2,10.5,2.8,-4.9,95,83,74,31.57,31.35,2,0,0,0.00
2014-1-9,18.2,6.2,-7.4,15.8,2.9,-9.8,91,85,78,31.66,31.32,0,0,0,0.00
2014-1-10,38.2,30.4,18.5,37.4,28.6,16.1,97,93,89,31.31,30.56,2,0,0,0.32
2014-1-11,39.8,36.4,32.0,39.3,34.7,28.9,98,94,86,30.54,30.18,8,1,14,0.09
2014-1-12,38.7,34.2,32.1,30.8,28.9,27.0,88,81,73,30.81,30.54,11,1,0,0.00
2014-1-13,42.2,37.1,32.7,35.4,32.2,28.7,87,82,76,30.60,30.43,6,1,0,0.00
2014-1-14,38.6,31.9,23.4,31.3,26.3,20.9,94,80,62,30.70,30.56,9,1,0,0.00
2014-1-15,28.8,23.6,18.2,23.7,16.7,11.6,87,75,65,30.94,30.57,5,1,0,0.00
2014-1-16,26.6,22.5,17.7,24.6,18.0,11.9,92,83,76,30.87,30.56,5,1,0,0.00
2014-1-17,29.7,24.6,19.7,27.9,20.3,14.5,93,84,74,30.85,30.53,6,1,0,0.01
2014-1-18,24.3,20.3,16.7,18.9,15.9,12.7,87,83,78,30.88,30.78,4,0,0,0.00
2014-1-19,28.3,22.1,10.6,25.2,18.7,8.3,92,87,81,30.78,30.45,12,1,17,0.00
2014-1-20,27.9,17.4,6.8,26.7,11.4,-2.2,95,77,63,31.13,30.46,8,0,0,0.00
2014-1-21,8.2,3.2,-4.0,-2.2,-3.9,-6.8,85,71,57,31.28,31.12,5,0,0,0.00
2014-1-22,12.9,4.1,-8.2,7.9,0.5,-10.5,87,83,77,31.25,30.96,4,0,0,0.00
2014-1-23,12.8,8.7,3.8,6.1,3.5,-2.4,89,79,62,31.50,31.00,6,0,0,0.00
2014-1-24,17.9,11.9,5.9,13.3,4.9,-1.1,87,73,58,31.27,30.43,8,2,19,0.00
2014-1-25,23.9,15.3,1.0,22.2,8.3,-4.3,93,74,48,30.75,30.22,7,1,16,0.00
2014-1-26,21.2,10.0,-2.8,17.7,6.1,-5.7,88,83,78,30.75,30.35,6,0,0,0.00
2014-1-27,15.5,5.3,-4.5,11.0,-3.0,-8.7,82,67,50,31.31,30.43,12,1,13,0.00
2014-1-28,9.6,0.9,-6.8,1.6,-4.0,-9.4,85,78,65,31.36,31.15,12,1,18,0.00
2014-1-29,18.7,10.7,0.4,9.0,3.9,-4.4,85,74,65,31.15,31.03,14,2,16,0.00
2014-1-30,28.1,19.6,10.0,25.3,12.0,2.5,89,72,62,31.09,30.68,9,1,17,0.00
2014-1-31,30.7,25.0,18.5,27.0,18.8,14.6,90,77,65,31.11,30.75,6,1,0,0.00
2014-2-1,24.6,21.4,17.5,22.5,19.0,14.5,92,90,85,31.12,30.83,5,0,0,0.00
2014-2-2,24.6,18.7,6.0,19.1,14.6,3.2,94,84,66,31.27,30.98,4,0,0,0.00
2014-2-3,21.3,7.4,-5.1,11.2,2.8,-7.6,91,81,63,31.41,31.28,5,0,0,0.01
2014-2-4,24.3,14.7,4.9,18.0,10.3,2.1,94,83,69,31.48,31.23,1,0,0,0.00
2014-2-5,21.8,17.9,8.7,20.0,13.2,4.6,93,82,58,31.37,31.03,2,0,0,0.00
2014-2-6,19.4,11.5,3.7,12.9,6.3,0.2,89,79,69,31.37,31.23,7,1,13,0.00
2014-2-7,15.9,10.0,3.6,7.8,4.2,-0.1,85,77,68,31.28,31.23,14,1,18,0.00
2014-2-8,22.6,9.9,-4.1,14.3,5.2,-6.5,90,81,69,31.33,31.18,1,0,0,0.00
2014-2-9,22.7,16.7,11.2,15.6,12.4,8.9,90,83,68,31.19,31.03,3,0,0,0.00
2014-2-10,21.1,12.1,3.2,12.4,6.2,0.1,91,77,60,31.41,31.16,3,0,0,0.00
2014-2-11,17.5,8.6,-1.1,3.3,-0.1,-4.9,81,67,49,31.56,31.41,3,0,0,0.00
2014-2-12,22.4,9.5,-5.3,11.6,2.9,-8.0,86,74,58,31.48,31.10,3,0,0,0.00
2014-2-13,34.8,24.0,12.0,20.9,14.1,6.6,92,67,43,31.11,30.46,3,0,0,0.01
2014-2-14,27.9,24.0,15.1,22.9,19.0,9.5,91,81,71,30.79,30.40,11,1,0,0.00
2014-2-15,22.0,11.3,1.7,9.1,4.3,-1.8,85,73,55,31.08,30.80,4,0,0,0.00
2014-2-16,22.0,14.4,1.3,16.1,9.7,-1.5,89,81,72,31.40,30.97,4,0,0,0.00
2014-2-17,22.3,10.5,-1.8,16.1,4.9,-4.7,91,79,50,31.43,30.66,6,0,0,0.00
2014-2-18,37.3,25.8,14.1,30.5,20.5,10.7,91,81,69,30.95,30.58,0,0,0,0.08
2014-2-19,45.0,35.2,25.1,31.8,28.1,22.6,93,76,56,30.94,30.53,9,1,0,0.20
2014-2-20,39.6,32.8,27.9,36.5,29.7,24.0,97,89,68,30.97,30.28,5,0,0,0.26
2014-2-21,41.4,33.7,28.7,40.6,26.8,16.7,97,76,60,30.59,30.24,18,5,24,0.00
2014-2-22,32.4,27.5,22.5,18.6,16.5,14.6,74,63,54,30.91,30.59,22,5,22,0.00
2014-2-23,26.5,21.4,16.0,17.2,12.7,10.7,80,69,55,31.02,30.91,18,2,18,0.00
2014-2-24,21.0,17.3,9.8,12.8,9.5,4.0,81,71,63,31.18,31.00,14,1,17,0.00
2014-2-25,23.1,14.1,6.4,16.4,7.7,2.3,89,75,65,31.17,30.99,20,1,20,0.00
2014-2-26,15.5,8.2,-0.6,6.0,0.5,-4.5,84,71,58,31.11,30.57,10,1,14,0.00
2014-2-27,11.2,5.7,-6.0,8.4,-4.1,-11.6,88,63,42,31.28,30.50,9,0,25,0.00
2014-2-28,19.4,5.7,-11.3,8.7,-3.7,-13.7,83,64,42,31.41,31.11,3,0,0,0.00
2014-3-1,21.9,18.4,10.9,17.8,12.3,7.1,92,77,59,31.32,31.07,3,0,0,0.00
2014-3-2,15.9,8.8,3.8,6.4,-0.6,-6.6,85,65,47,31.43,31.32,4,0,0,0.00
2014-3-3,16.5,3.9,-7.2,3.0,-5.3,-11.5,78,64,46,31.55,31.42,3,0,0,0.00
2014-3-4,21.8,14.5,5.1,13.1,6.7,-3.7,78,70,64,31.45,31.23,0,0,0,0.00
2014-3-5,21.8,14.6,6.8,12.9,8.8,4.0,89,78,64,31.59,31.29,6,1,0,0.01
2014-3-6,30.4,15.8,2.3,12.5,7.0,-0.8,88,70,45,31.59,31.17,5,0,0,0.01
2014-3-7,47.9,28.6,9.2,29.2,18.0,5.6,88,66,43,31.17,30.83,6,0,0,0.00
2014-3-8,38.6,29.3,19.3,29.2,22.5,14.6,86,76,63,31.14,30.85,5,0,0,0.00
2014-3-9,36.3,24.9,8.9,26.5,17.6,5.9,91,74,58,31.18,30.74,12,1,15,0.00
2014-3-10,51.6,41.0,32.8,36.3,32.9,26.8,86,74,55,30.73,30.40,10,1,0,0.00
2014-3-11,49.5,41.3,34.7,35.7,33.3,28.9,89,74,54,30.69,30.51,3,0,0,0.00
2014-3-12,34.6,22.8,9.4,29.5,17.2,1.0,94,79,58,31.03,30.61,13,2,17,0.00
2014-3-13,27.4,15.5,0.9,17.7,5.4,-3.2,81,65,46,31.16,30.92,5,0,0,0.00
2014-3-14,53.5,37.6,22.6,36.6,28.1,16.8,88,70,47,30.91,30.39,16,2,16,0.02
2014-3-15,38.6,31.3,17.2,32.5,20.8,8.5,83,65,48,31.29,30.58,9,1,12,0.00
2014-3-16,23.6,14.4,7.8,12.4,4.8,0.1,76,65,40,31.46,31.27,5,1,0,0.00
2014-3-17,36.3,19.8,6.6,16.8,8.3,1.4,85,63,38,31.26,30.94,3,0,0,0.00
2014-3-18,47.5,33.3,22.0,31.7,24.0,16.0,82,69,50,30.99,30.83,5,0,0,0.00
2014-3-19,45.0,37.5,30.4,42.8,34.7,27.0,96,90,81,30.84,30.47,12,1,15,0.15
2014-3-20,36.9,33.6,26.7,30.9,26.2,21.3,90,75,58,31.00,30.69,9,2,12,0.00
2014-3-21,49.1,32.7,19.5,30.4,23.7,17.3,95,72,44,31.05,30.69,2,0,0,0.07
2014-3-22,36.6,31.5,20.9,31.0,25.8,10.7,94,80,60,31.25,30.62,10,0,0,0.09
2014-3-23,23.6,18.7,11.4,10.5,7.0,4.0,76,60,48,31.38,31.25,4,0,0,0.00
2014-3-24,29.2,20.1,9.3,15.9,10.5,6.0,89,67,46,31.37,31.06,10,1,0,0.00
2014-3-25,29.5,23.7,15.3,20.6,13.9,5.3,86,67,46,31.16,30.86,11,1,0,0.00
2014-3-26,36.1,21.3,7.5,19.4,9.9,4.1,89,63,40,31.34,31.14,6,0,13,0.00
2014-3-27,39.1,34.1,29.4,37.2,27.9,18.4,93,79,63,31.14,30.53,7,1,0,0.11
2014-3-28,46.1,40.1,31.2,45.0,36.6,27.2,96,87,76,31.14,30.39,6,1,0,0.20
2014-3-29,37.1,33.0,29.0,31.3,27.5,23.9,91,80,62,31.18,31.10,9,1,12,0.00
2014-3-30,54.5,36.3,25.1,29.3,23.9,20.7,84,63,36,31.21,31.06,6,0,0,0.00
2014-3-31,66.9,45.7,28.6,38.6,29.8,22.9,83,57,31,31.12,30.83,5,0,0,0.00
2014-4-1,57.1,42.1,32.8,45.0,31.7,25.1,79,67,46,30.91,30.53,23,3,23,0.02
2014-4-2,54.4,37.9,26.9,32.1,26.6,22.1,83,65,39,31.15,30.91,4,0,0,0.00
2014-4-3,36.8,33.5,30.7,29.6,27.8,26.1,88,79,73,31.15,30.85,11,1,14,0.02
2014-4-4,43.5,37.2,34.0,42.4,34.1,29.4,97,89,78,30.80,30.32,16,1,19,0.31
2014-4-5,48.2,36.6,29.0,28.5,23.9,21.0,79,62,36,31.11,30.60,16,1,18,0.00
2014-4-6,64.7,42.8,25.7,35.5,27.8,21.7,88,59,31,31.13,30.93,3,0,0,0.00
2014-4-7,53.0,41.7,31.2,32.8,29.1,24.8,82,62,45,30.94,30.45,5,0,0,0.00
2014-4-8,61.7,48.0,38.3,37.0,31.8,27.6,70,55,33,30.73,30.41,8,1,12,0.00
2014-4-9,58.5,45.9,31.6,33.5,27.9,23.3,73,51,31,30.90,30.73,10,1,16,0.00
2014-4-10,67.1,53.8,45.4,43.8,38.5,32.6,67,57,40,30.75,30.47,14,2,17,0.00
2014-4-11,66.9,50.4,32.8,34.7,29.9,24.1,85,50,22,30.92,30.76,7,0,12,0.00
2014-4-12,65.1,47.5,37.1,48.2,37.4,30.5,96,71,39,31.00,30.73,14,2,13,1.65
2014-4-13,67.9,56.6,48.5,58.9,53.1,47.7,97,89,71,30.79,30.46,12,1,0,0.98
2014-4-14,62.9,48.8,27.5,58.4,43.7,25.0,98,83,66,30.75,30.18,17,4,23,0.23
2014-4-15,33.3,28.0,23.6,24.2,16.7,10.4,92,64,41,31.21,30.74,11,3,14,0.08
2014-4-16,53.3,34.4,20.0,27.6,21.2,16.6,92,62,34,31.44,31.21,3,0,0,0.02
2014-4-17,69.6,48.3,31.8,39.9,31.1,20.1,71,53,31,31.33,31.09,10,1,0,0.00
2014-4-18,59.7,49.4,36.7,40.5,37.9,32.3,84,65,42,31.30,31.14,7,1,0,0.00
2014-4-19,64.1,43.3,28.8,41.0,33.6,26.0,92,72,35,31.43,31.25,6,1,0,0.00
2014-4-20,79.7,55.6,35.1,42.1,36.3,31.6,89,55,20,31.27,30.94,5,1,0,0.00
2014-4-21,82.1,64.5,53.8,57.4,46.9,37.3,94,55,32,30.94,30.57,12,2,0,0.18
2014-4-22,56.9,46.2,37.6,55.8,38.5,29.8,96,75,61,30.88,30.51,15,4,20,0.02
2014-4-23,60.7,44.2,32.5,32.5,27.0,19.2,85,56,21,31.06,30.89,7,1,0,0.00
2014-4-24,64.8,48.1,35.2,28.6,25.2,21.5,69,43,25,31.10,30.78,5,0,0,0.00
2014-4-25,55.7,45.1,40.4,45.9,36.9,25.7,93,74,46,30.80,30.57,6,0,0,0.23
2014-4-26,47.9,43.5,40.4,41.0,36.5,33.5,94,76,63,31.05,30.66,10,2,0,0.00
2014-4-27,58.2,44.1,31.7,37.7,32.4,29.0,91,65,41,31.15,31.03,14,2,14,0.00
2014-4-28,59.1,49.4,40.3,36.4,33.0,29.1,68,54,41,31.05,30.71,11,3,17,0.00
2014-4-29,78.6,56.0,44.2,60.3,48.2,33.4,97,77,49,30.72,30.44,10,1,0,0.86
2014-4-30,68.5,58.5,52.2,56.0,52.2,50.0,95,80,61,30.65,30.57,6,1,0,0.01
2014-5-1,54.7,47.3,40.3,51.2,41.3,37.2,91,80,62,30.62,30.57,12,3,17,0.03
2014-5-2,53.5,48.3,43.6,45.7,43.4,40.0,93,83,71,30.65,30.57,14,4,14,0.02
2014-5-3,58.2,49.8,45.9,49.2,43.0,36.1,96,80,51,30.71,30.47,17,2,20,0.22
2014-5-4,57.0,47.0,38.3,41.2,36.2,30.7,93,69,38,31.00,30.72,8,2,0,0.02
2014-5-5,61.0,46.2,35.6,42.9,38.2,32.7,91,75,48,31.03,30.88,6,0,0,0.01
2014-5-6,59.8,49.0,36.6,44.2,39.6,34.8,96,71,52,31.03,30.91,11,2,13,0.00
2014-5-7,59.2,48.6,41.4,50.7,42.8,31.4,94,81,65,31.06,30.85,7,1,0,0.43
2014-5-8,89.0,66.5,48.0,69.1,56.8,43.7,89,73,51,30.89,30.67,4,1,0,0.04
2014-5-9,77.1,71.5,61.0,64.0,60.0,49.6,79,68,50,30.67,30.43,20,3,20,0.00
2014-5-10,71.1,59.9,50.3,48.9,41.2,33.0,79,53,27,30.83,30.58,19,4,20,0.00
2014-5-11,87.9,64.9,43.6,56.1,47.5,37.7,89,58,27,30.93,30.77,4,0,0,0.00
2014-5-12,69.4,65.5,60.6,67.6,61.7,55.9,96,88,64,30.84,30.74,4,0,0,0.65
2014-5-13,80.8,68.8,59.3,72.0,64.8,54.1,98,88,68,30.89,30.68,8,1,0,0.19
2014-5-14,59.1,54.2,48.3,54.3,48.1,40.4,86,80,68,31.01,30.89,6,1,0,0.00
2014-5-15,47.6,45.1,38.0,46.0,43.0,33.3,97,92,79,30.90,30.61,15,3,15,1.65
2014-5-16,51.8,43.2,34.9,38.9,35.6,32.3,91,75,58,30.95,30.89,8,1,0,0.19
2014-5-17,57.3,45.1,34.2,47.2,37.5,31.9,93,76,50,31.07,30.95,11,0,0,0.03
2014-5-18,69.5,55.7,40.6,42.8,38.9,35.9,91,57,32,31.12,31.05,15,2,15,0.01
2014-5-19,77.6,61.2,46.5,52.0,44.0,40.3,82,56,32,31.15,30.98,12,1,0,0.01
2014-5-20,77.4,60.4,52.5,63.3,53.4,44.5,93,79,55,31.05,30.70,5,0,0,0.01
2014-5-21,84.7,68.8,55.7,67.9,57.0,44.2,95,70,26,30.73,30.60,7,1,0,0.00
2014-5-22,74.1,61.9,53.7,55.9,49.8,43.1,86,67,42,30.94,30.70,11,1,14,0.01
2014-5-23,72.8,58.3,46.3,52.9,47.6,42.1,87,69,47,31.04,30.93,6,1,0,0.00
2014-5-24,84.0,65.2,47.2,53.0,48.5,44.7,93,60,28,31.09,30.97,5,0,0,0.00
2014-5-25,87.5,69.2,50.5,57.8,52.0,47.5,91,59,31,31.02,30.86,6,0,0,0.00
2014-5-26,89.1,72.7,56.3,65.0,58.1,53.1,90,64,36,30.88,30.72,11,1,15,0.00
2014-5-27,81.5,72.3,67.5,72.4,66.9,63.6,96,83,66,30.74,30.65,6,1,0,0.91
2014-5-28,69.6,63.2,54.1,65.6,54.7,50.3,93,75,54,30.98,30.73,12,2,12,0.00
2014-5-29,78.6,62.2,46.4,59.5,52.7,44.8,97,74,47,31.05,30.96,6,1,0,0.00
2014-5-30,90.0,68.5,50.7,62.6,54.4,48.8,96,65,36,31.09,30.97,7,0,0,0.00
2014-5-31,88.4,72.2,55.9,59.7,53.7,49.6,85,55,33,31.11,30.95,5,0,0,0.00
2014-6-1,94.7,73.9,54.9,65.0,55.5,46.8,79,55,33,31.02,30.77,4,0,0,0.00
2014-6-2,87.0,74.7,67.6,73.1,65.1,55.4,91,73,57,30.79,30.55,7,0,0,0.07
2014-6-3,75.6,70.3,60.5,66.8,58.6,50.4,95,69,43,30.73,30.55,13,3,23,0.00
2014-6-4,75.5,65.0,56.3,56.5,52.9,46.3,90,67,39,30.76,30.66,4,0,0,0.00
2014-6-5,82.1,65.2,49.6,50.6,46.6,42.7,86,55,27,30.81,30.72,6,0,0,0.00
2014-6-6,86.8,67.1,48.1,55.9,48.3,41.2,88,56,22,30.87,30.80,5,0,0,0.00
2014-6-7,91.9,72.2,53.3,59.5,53.3,48.9,89,56,26,30.90,30.70,4,0,0,0.00
2014-6-8,80.0,68.9,59.7,62.3,57.1,50.9,88,67,52,30.85,30.66,7,1,13,0.03
2014-6-9,80.9,66.9,53.4,61.7,56.2,49.0,93,70,49,30.90,30.79,7,1,0,0.00
2014-6-10,79.3,67.4,55.9,57.3,52.7,48.5,79,60,44,30.84,30.74,6,1,0,0.00
2014-6-11,76.9,65.7,60.0,69.0,60.8,48.0,97,85,54,30.74,30.54,4,0,0,1.31
2014-6-12,81.5,69.9,62.8,69.4,64.4,62.1,98,84,59,30.60,30.53,10,1,12,0.00
2014-6-13,68.8,58.6,48.0,63.8,49.7,45.5,91,73,63,30.90,30.55,12,1,13,0.00
2014-6-14,81.4,60.2,43.5,57.7,48.2,42.2,95,68,37,31.04,30.90,5,0,0,0.00
2014-6-15,87.8,69.8,52.4,60.4,55.2,48.5,89,63,35,30.99,30.75,5,0,0,0.00
2014-6-16,90.2,78.1,68.1,67.1,61.4,56.6,87,60,34,30.84,30.76,8,1,0,0.00
2014-6-17,86.6,76.0,64.8,71.9,65.6,59.5,86,71,52,30.79,30.57,14,2,25,0.00
2014-6-18,75.7,68.3,64.8,71.1,65.7,62.6,97,91,79,30.89,30.72,6,1,0,0.79
2014-6-19,76.7,67.6,59.0,63.8,57.8,46.2,95,73,42,31.02,30.88,10,2,0,0.00
2014-6-20,70.4,61.7,54.9,63.8,55.6,48.1,95,81,68,31.00,30.84,3,0,0,0.19
2014-6-21,85.4,69.5,57.8,63.7,58.0,52.7,93,69,46,30.88,30.74,4,0,0,0.00
2014-6-22,92.4,74.4,61.8,66.4,60.0,52.2,81,63,39,30.78,30.67,2,0,0,0.00
2014-6-23,78.4,70.7,62.0,71.9,64.1,55.9,96,80,69,30.74,30.66,1,0,0,0.20
2014-6-24,81.8,72.6,68.4,72.3,69.6,67.5,97,91,70,30.70,30.65,2,0,0,0.48
2014-6-25,74.7,67.3,61.8,67.9,62.5,57.6,95,85,67,30.87,30.70,7,1,0,0.00
2014-6-26,83.8,68.9,55.1,65.5,59.1,53.7,100,74,44,30.93,30.86,5,1,0,0.00
2014-6-27,91.6,73.4,57.2,69.5,61.0,53.5,89,67,44,30.97,30.88,4,0,0,0.00
2014-6-28,92.9,76.7,62.1,74.6,67.5,59.7,94,75,46,30.94,30.82,8,0,0,0.00
2014-6-29,87.8,78.8,71.7,75.2,69.4,65.1,91,75,49,30.84,30.69,12,1,14,0.02
2014-6-30,91.8,80.0,71.9,75.2,71.6,67.3,93,77,56,30.71,30.48,8,0,12,0.00
2014-7-1,85.3,74.2,66.8,72.0,65.2,61.4,96,76,46,30.52,30.32,12,2,15,0.24
2014-7-2,73.3,69.0,61.9,63.3,60.9,58.2,92,76,63,30.79,30.52,8,1,16,0.01
2014-7-3,73.1,61.9,51.2,61.6,54.7,45.7,94,78,62,31.02,30.78,7,1,0,0.39
2014-7-4,80.8,65.0,49.7,57.2,51.4,46.9,97,67,33,31.17,31.02,7,0,0,0.00
2014-7-5,84.1,67.4,51.4,58.7,54.1,49.4,96,66,36,31.14,30.90,8,1,17,0.00
2014-7-6,84.7,71.4,58.4,69.6,62.1,54.9,93,74,56,30.90,30.51,10,1,13,0.62
2014-7-7,85.2,75.7,67.2,70.8,66.5,60.6,98,76,45,30.54,30.42,14,2,18,1.67
2014-7-8,75.6,69.1,63.8,67.8,62.8,59.7,97,81,63,30.58,30.32,14,1,15,0.58
2014-7-9,75.4,64.2,54.4,60.8,55.3,52.6,95,75,49,30.87,30.58,5,0,0,0.01
2014-7-10,79.6,66.7,55.9,58.4,54.0,48.6,87,66,36,31.04,30.88,4,0,0,0.00
2014-7-11,84.4,69.4,54.0,63.9,58.4,52.4,97,71,42,31.09,30.96,5,0,12,0.00
2014-7-12,86.0,73.1,62.0,71.7,65.7,59.6,94,79,50,30.99,30.67,1,0,0,0.10
2014-7-13,82.4,74.5,68.2,70.4,66.5,62.5,97,78,52,30.69,30.51,7,1,17,1.42
2014-7-14,82.8,70.9,62.0,65.2,59.4,51.6,91,70,36,30.69,30.57,6,0,0,0.00
2014-7-15,68.4,62.5,56.7,61.1,55.8,51.3,94,80,60,30.74,30.52,10,2,15,0.03
2014-7-16,68.7,60.6,53.3,57.6,53.2,49.7,89,77,60,30.85,30.73,5,1,12,0.00
2014-7-17,78.8,64.6,49.8,57.5,53.7,48.2,97,71,42,30.98,30.85,11,1,13,0.00
2014-7-18,84.2,68.5,52.3,61.9,56.0,50.6,97,68,40,31.09,30.98,3,0,0,0.00
2014-7-19,82.3,70.3,58.5,64.5,59.8,55.1,90,71,50,30.99,30.85,5,0,0,0.00
2014-7-20,88.5,71.4,57.5,67.1,61.8,56.1,97,75,40,30.92,30.85,3,0,0,0.00
2014-7-21,90.6,75.7,63.4,70.3,65.1,60.7,92,72,47,30.94,30.87,5,0,0,0.00
2014-7-22,91.5,78.0,65.1,73.2,67.4,61.4,88,71,51,30.90,30.68,11,0,0,0.00
2014-7-23,79.5,69.0,63.7,70.9,59.7,53.0,85,73,58,30.94,30.70,7,0,13,0.00
2014-7-24,80.8,66.1,53.7,58.0,54.0,49.5,86,67,42,31.00,30.88,4,0,0,0.00
2014-7-25,79.2,66.3,53.4,61.7,56.2,51.1,94,72,47,30.92,30.76,6,0,12,0.00
2014-7-26,82.4,70.9,60.2,68.2,63.0,57.4,92,77,60,30.77,30.57,5,0,0,0.02
2014-7-27,84.1,68.2,61.8,72.9,64.6,59.9,96,89,63,30.59,30.40,6,0,20,0.71
2014-7-28,68.4,62.0,56.7,61.0,54.9,47.9,96,79,55,30.87,30.57,11,1,0,0.13
2014-7-29,75.2,59.7,48.8,62.5,55.0,47.2,96,85,58,30.85,30.78,6,0,0,0.39
2014-7-30,79.1,65.3,54.2,59.2,55.4,50.9,98,74,39,30.86,30.79,6,0,0,0.00
2014-7-31,81.8,67.0,55.1,64.2,58.1,52.2,91,75,47,30.85,30.81,7,1,0,0.00
2014-8-1,85.1,70.8,59.9,67.5,62.9,58.2,95,78,47,30.92,30.85,4,0,0,0.00
2014-8-2,86.2,70.7,57.3,67.3,62.2,55.9,97,77,47,30.97,30.90,2,0,0,0.00
2014-8-3,87.7,72.7,59.4,68.2,62.9,58.0,97,75,41,30.96,30.86,5,0,0,0.00
2014-8-4,88.0,72.1,62.9,68.9,64.9,60.8,95,80,49,30.91,30.83,3,0,0,0.12
2014-8-5,81.9,69.2,61.0,67.2,62.4,53.8,97,81,40,30.93,30.85,3,0,0,1.01
2014-8-6,83.0,70.4,61.2,63.3,59.8,55.1,96,72,40,30.91,30.86,3,0,0,0.00
2014-8-7,84.4,69.6,56.6,65.7,59.9,54.5,94,73,46,30.98,30.90,5,0,0,0.00
2014-8-8,83.8,68.5,56.4,63.0,58.4,54.4,95,72,47,31.02,30.95,10,0,0,0.00
2014-8-9,83.0,68.1,54.4,64.8,59.5,52.7,97,76,52,31.02,30.94,10,0,0,0.00
2014-8-10,85.9,71.2,57.5,68.6,62.6,55.6,96,76,55,30.97,30.83,4,0,0,0.00
2014-8-11,80.4,68.8,63.4,71.1,64.9,61.6,97,88,71,30.85,30.53,4,0,0,3.68
2014-8-12,76.1,65.6,59.5,67.2,62.1,55.9,97,89,70,30.69,30.46,9,1,15,0.01
2014-8-13,78.8,65.3,54.1,56.2,52.9,50.0,92,68,39,30.84,30.69,8,1,13,0.00
2014-8-14,73.0,60.5,48.6,51.4,47.2,42.9,91,64,36,30.91,30.83,10,1,19,0.00
2014-8-15,78.1,61.9,47.0,55.1,48.9,43.8,89,65,38,30.92,30.79,8,1,13,0.00
2014-8-16,77.8,65.4,53.2,67.8,59.5,49.0,91,82,67,30.80,30.66,13,1,13,0.02
2014-8-17,80.1,68.1,59.9,64.9,61.4,58.2,95,80,55,30.86,30.76,7,0,0,0.00
2014-8-18,80.6,68.1,57.6,67.8,61.2,55.1,94,80,63,30.84,30.65,4,0,0,0.00
2014-8-19,74.1,68.3,64.1,70.3,65.7,61.5,96,91,81,30.65,30.53,0,0,0,0.47
2014-8-20,81.9,70.4,65.4,70.8,66.7,63.0,98,89,63,30.76,30.57,7,0,12,0.61
2014-8-21,80.7,69.1,59.0,69.2,64.2,57.9,98,85,65,30.84,30.77,3,0,0,0.00
2014-8-22,82.8,72.1,65.3,70.8,66.1,63.5,95,82,64,30.85,30.77,5,0,0,0.00
2014-8-23,81.8,70.1,61.5,70.0,65.4,60.3,97,86,66,30.92,30.85,6,1,0,0.00
2014-8-24,78.4,69.6,62.6,69.4,65.7,61.4,97,88,74,30.96,30.89,4,0,0,0.00
2014-8-25,87.3,74.7,64.4,77.6,70.3,62.9,96,87,70,30.92,30.80,5,0,0,0.00
2014-8-26,82.7,75.3,68.7,75.0,71.1,66.9,97,87,75,30.88,30.81,6,1,0,0.00
2014-8-27,79.8,68.8,60.9,66.7,60.4,54.8,93,76,52,30.99,30.88,5,0,13,0.00
2014-8-28,78.8,63.4,50.1,58.8,53.6,46.7,89,72,47,31.05,30.95,5,0,0,0.00
2014-8-29,77.3,67.0,59.3,65.9,58.5,51.9,86,75,64,31.00,30.81,3,0,0,0.00
2014-8-30,84.2,72.7,67.2,75.2,68.1,60.2,95,86,72,30.82,30.59,2,0,0,0.31
2014-8-31,86.5,74.0,67.5,72.4,68.9,66.3,97,85,58,30.77,30.67,7,0,0,0.01
2014-9-1,84.1,72.1,64.3,74.5,69.4,63.2,98,91,71,30.72,30.51,18,0,18,0.95
2014-9-2,82.1,71.6,62.2,68.0,62.9,57.0,96,77,44,30.75,30.60,6,0,12,0.00
2014-9-3,89.7,70.1,56.1,67.7,61.2,55.0,98,77,42,30.86,30.76,5,0,0,0.00
2014-9-4,82.7,72.0,61.3,71.7,66.1,59.6,96,83,62,30.86,30.73,5,0,0,0.00
2014-9-5,87.2,76.6,66.9,77.9,71.8,61.9,93,85,71,30.81,30.64,10,1,0,0.22
2014-9-6,76.6,66.7,60.2,61.7,56.3,52.7,89,71,46,30.98,30.76,7,0,0,0.00
2014-9-7,84.6,64.4,49.7,59.6,54.7,48.1,97,74,40,31.08,30.98,5,0,0,0.00
2014-9-8,84.4,66.2,52.3,61.1,55.9,50.7,97,73,41,31.07,30.89,5,0,0,0.00
2014-9-9,87.1,69.2,58.0,64.3,59.4,55.4,94,74,42,30.91,30.78,4,0,0,0.00
2014-9-10,72.6,68.1,63.3,71.4,65.2,59.0,97,90,85,30.80,30.31,13,0,20,0.36
2014-9-11,63.0,54.6,50.6,60.0,48.8,45.5,90,81,73,31.11,30.42,15,1,17,0.00
2014-9-12,56.2,51.3,48.8,52.3,48.0,45.6,96,89,78,31.21,31.09,4,0,0,0.23
2014-9-13,62.4,51.3,45.5,50.0,45.7,42.5,100,83,51,31.23,31.00,7,0,0,0.57
2014-9-14,64.0,52.8,42.7,48.8,45.8,41.1,96,79,53,31.25,31.07,5,0,0,0.00
2014-9-15,60.0,52.1,45.4,54.7,49.3,44.1,96,90,79,31.07,30.95,3,0,0,0.13
2014-9-16,65.6,53.7,44.0,53.4,47.7,43.2,98,82,51,31.06,30.95,5,0,0,0.01
2014-9-17,70.4,54.3,41.2,53.9,46.6,39.9,97,78,42,30.95,30.84,7,0,0,0.00
2014-9-18,58.5,52.1,45.3,52.2,48.1,42.0,96,87,72,31.14,30.90,6,1,0,0.00
2014-9-19,73.9,53.2,37.4,56.7,46.0,36.1,97,79,52,31.19,30.88,2,0,0,0.00
2014-9-20,80.1,64.8,53.5,68.2,59.0,50.6,96,82,64,30.88,30.55,7,1,0,0.47
2014-9-21,65.1,58.0,47.6,64.1,55.6,41.0,97,92,77,30.91,30.39,8,1,13,0.96
2014-9-22,64.9,52.8,44.7,51.2,44.6,40.3,91,75,53,31.12,30.91,5,1,0,0.00
2014-9-23,81.1,58.8,44.9,60.7,51.4,43.8,97,79,47,31.22,31.12,5,0,0,0.00
2014-9-24,81.5,61.5,47.4,59.9,53.8,46.3,98,79,45,31.32,31.19,2,0,0,0.00
2014-9-25,84.2,62.2,47.6,60.5,54.3,46.2,98,79,42,31.22,31.11,1,0,0,0.00
2014-9-26,85.1,63.0,48.0,62.8,55.5,46.8,98,79,43,31.20,31.11,3,0,0,0.00
2014-9-27,84.2,63.3,49.5,62.4,56.1,48.4,98,80,44,31.19,31.05,2,0,0,0.00
2014-9-28,78.3,62.9,51.5,63.2,56.6,50.4,98,82,53,31.07,30.91,1,0,0,0.00
2014-9-29,81.1,63.3,49.9,63.4,56.3,48.8,98,81,49,30.91,30.70,6,0,0,0.34
2014-9-30,54.4,52.1,49.5,52.3,48.8,46.0,95,89,78,30.93,30.76,3,0,0,0.01
2014-10-1,71.3,57.7,51.1,59.9,54.0,49.7,98,89,61,30.97,30.86,2,0,0,0.01
2014-10-2,67.2,60.4,52.1,62.2,58.0,50.7,98,92,81,30.91,30.60,0,0,0,0.00
2014-10-3,65.3,61.1,50.9,64.1,57.9,45.0,98,90,77,30.61,30.17,13,1,12,1.34
2014-10-4,50.6,44.8,41.4,45.0,40.4,38.2,94,85,75,30.53,30.42,7,1,19,0.09
2014-10-5,54.1,46.7,42.5,43.1,40.2,37.3,94,79,55,30.58,30.52,11,0,13,0.00
2014-10-6,63.6,51.3,45.7,50.5,45.8,42.3,96,82,56,30.55,30.41,5,0,0,0.19
2014-10-7,67.5,51.6,42.0,56.3,46.8,40.9,97,85,57,30.59,30.48,3,0,0,0.06
2014-10-8,57.7,49.7,38.9,48.6,39.0,32.4,96,69,40,30.86,30.58,14,2,17,0.00
2014-10-9,59.6,45.4,33.3,41.8,37.2,31.8,96,76,47,31.02,30.86,7,1,13,0.00
2014-10-10,55.8,44.7,34.6,41.5,37.2,33.1,96,77,49,31.11,31.02,4,0,0,0.00
2014-10-11,60.6,44.3,31.9,41.2,36.3,30.3,97,76,43,31.19,31.08,3,0,0,0.00
2014-10-12,65.1,46.2,31.5,45.7,38.4,30.1,97,77,45,31.15,30.91,5,0,0,0.00
2014-10-13,65.8,59.0,48.2,62.8,56.6,42.7,97,92,79,30.91,30.60,0,0,0,0.05
2014-10-14,69.1,64.5,58.4,63.8,61.4,57.6,97,90,79,30.59,30.41,7,0,0,0.95
2014-10-15,65.2,59.1,54.2,58.5,56.1,53.4,98,90,74,30.66,30.50,2,0,0,0.03
2014-10-16,61.5,56.8,53.3,55.4,53.9,50.6,97,90,79,30.64,30.51,4,0,0,0.00
2014-10-17,62.3,54.7,46.5,54.2,51.1,44.0,96,88,69,30.52,30.29,12,1,12,0.07
2014-10-18,48.0,44.2,37.0,43.8,39.1,31.6,92,82,69,31.05,30.52,9,1,0,0.01
2014-10-19,53.1,41.2,28.5,42.3,34.6,26.9,95,78,59,31.13,30.85,6,0,0,0.00
2014-10-20,58.7,50.7,45.9,51.3,46.7,42.4,94,86,75,30.84,30.65,5,0,0,0.02
2014-10-21,49.2,46.0,41.0,44.6,40.2,34.4,89,80,68,31.18,30.78,7,0,0,0.00
2014-10-22,48.7,44.0,36.9,42.7,39.0,34.5,91,82,78,31.31,31.18,2,0,0,0.00
2014-10-23,56.4,39.4,29.2,42.5,35.4,27.9,98,87,59,31.22,31.02,2,0,0,0.00
2014-10-24,65.0,47.7,36.0,52.4,43.6,34.4,97,87,61,31.02,30.82,3,0,0,0.00
2014-10-25,67.8,54.4,43.5,53.5,43.2,32.9,97,71,28,30.82,30.56,14,2,18,0.00
2014-10-26,61.3,48.3,37.7,38.0,35.3,33.1,85,62,38,30.85,30.69,6,1,0,0.00
2014-10-27,70.8,51.4,32.1,56.3,43.2,30.2,94,76,48,30.86,30.52,3,0,0,0.00
2014-10-28,67.2,59.6,48.4,58.7,50.0,36.7,94,72,46,30.72,30.46,17,2,20,0.14
2014-10-29,49.8,45.9,38.4,39.9,37.8,34.9,87,73,64,31.00,30.71,8,1,0,0.00
2014-10-30,50.5,41.8,31.7,41.9,37.3,30.0,96,85,65,31.06,30.90,2,0,0,0.01
2014-10-31,43.0,38.2,32.6,40.6,35.2,26.2,95,89,77,31.19,30.80,11,2,21,0.38
2014-11-1,40.7,32.8,25.0,26.0,23.3,21.2,86,69,47,31.35,31.19,10,2,16,0.00
2014-11-2,50.7,33.2,20.4,30.7,24.3,18.2,94,72,39,31.41,31.18,3,0,0,0.00
2014-11-3,58.7,48.3,40.6,40.4,32.8,27.4,71,56,38,31.18,30.85,6,0,0,0.00
2014-11-4,56.5,51.3,41.4,50.9,42.8,35.7,92,74,50,30.86,30.65,6,1,14,0.01
2014-11-5,51.6,45.3,40.7,39.9,36.5,33.1,86,72,54,31.00,30.83,12,2,12,0.00
2014-11-6,48.3,42.7,36.4,44.9,38.9,28.8,93,87,73,30.98,30.65,5,0,0,0.11
2014-11-7,42.4,36.7,29.6,31.8,28.0,25.0,90,71,52,31.06,30.84,7,0,0,0.00
2014-11-8,43.4,38.2,35.7,39.0,34.8,31.6,95,88,76,30.85,30.58,8,1,18,0.16
2014-11-9,44.2,38.4,31.7,34.7,31.6,27.8,87,77,62,30.81,30.67,8,0,0,0.00
2014-11-10,55.1,44.7,38.0,44.1,38.6,35.8,94,80,60,30.85,30.58,4,0,0,0.04
2014-11-11,52.1,46.0,35.5,48.6,39.2,30.6,94,78,64,30.77,30.46,17,2,17,0.01
2014-11-12,35.1,32.1,29.3,29.9,23.8,21.0,82,71,60,31.15,30.78,15,2,15,0.00
2014-11-13,33.7,29.3,24.3,25.0,21.4,17.2,85,72,52,31.14,31.07,10,1,0,0.00
2014-11-14,34.1,28.8,23.7,25.3,22.9,20.5,89,79,62,31.29,31.12,5,1,0,0.00
2014-11-15,32.5,28.7,24.5,24.9,22.4,20.0,90,77,63,31.32,31.18,7,1,0,0.00
2014-11-16,32.7,29.1,25.5,28.1,25.7,23.0,92,87,82,31.17,30.83,4,0,0,0.05
2014-11-17,30.4,24.9,15.0,27.7,20.0,10.5,91,82,59,30.82,30.58,16,2,16,0.00
2014-11-18,23.7,18.1,13.9,15.9,12.5,9.7,88,79,57,31.04,30.69,15,4,22,0.00
2014-11-19,25.4,21.4,14.3,22.6,17.0,10.9,90,83,72,31.04,30.64,11,1,17,0.00
2014-11-20,25.9,19.8,14.3,17.5,13.2,9.3,89,76,57,31.16,30.78,17,2,22,0.00
2014-11-21,27.7,18.5,6.8,16.8,12.1,4.3,91,77,57,31.48,31.17,5,0,0,0.00
2014-11-22,47.1,35.3,21.6,45.4,31.6,14.9,96,86,69,31.27,30.81,8,1,0,0.06
2014-11-23,50.3,48.0,45.0,48.0,46.0,43.2,97,93,87,30.82,30.08,5,0,0,0.93
2014-11-24,52.7,45.6,33.0,51.5,43.4,28.1,98,92,78,30.51,29.84,20,4,24,0.79
2014-11-25,34.5,31.6,30.0,28.2,25.9,22.5,91,79,70,31.16,30.51,17,3,18,0.00
2014-11-26,33.4,30.3,28.7,25.5,23.9,22.4,85,77,66,31.17,31.08,0,0,0,0.00
2014-11-27,30.2,27.0,20.3,26.1,20.7,10.2,92,77,61,31.31,31.08,4,0,0,0.00
2014-11-28,28.4,22.8,16.2,23.3,16.9,10.1,89,78,64,31.34,31.03,3,0,0,0.00
2014-11-29,48.7,37.2,26.5,45.0,31.7,23.4,89,81,68,31.03,30.55,6,2,0,0.01
2014-11-30,54.2,47.0,31.5,49.7,43.6,26.1,95,88,80,31.04,30.53,7,2,0,0.01
2014-12-1,31.3,23.6,13.3,26.2,13.7,6.9,81,66,50,31.68,31.06,10,0,18,0.00
2014-12-2,35.6,25.1,11.3,27.6,19.1,6.8,87,78,63,31.65,30.99,2,0,0,0.00
2014-12-3,36.6,31.4,25.1,30.1,24.1,16.1,92,75,57,31.27,30.91,14,2,20,0.00
2014-12-4,30.8,25.2,17.2,19.5,16.2,13.4,86,69,53,31.45,31.27,0,0,0,0.00
2014-12-5,38.2,33.2,27.0,30.5,26.4,18.4,83,76,68,31.36,31.16,0,0,0,0.00
2014-12-6,39.7,33.3,25.5,31.1,25.0,16.0,89,72,48,31.64,31.18,10,1,13,0.00
2014-12-7,37.1,28.2,19.5,26.2,18.4,14.9,89,67,49,31.70,31.40,4,0,0,0.00
2014-12-8,41.5,34.7,28.7,32.0,27.6,20.5,94,76,58,31.39,30.97,7,1,0,0.04
2014-12-9,37.7,34.1,30.8,35.3,31.8,26.5,96,91,83,31.28,30.98,8,1,0,0.07
2014-12-10,30.6,26.8,21.7,26.1,21.6,15.9,85,80,70,31.32,31.10,6,0,0,0.00
2014-12-11,39.0,28.4,18.2,26.3,19.5,10.2,84,69,50,31.11,31.02,8,1,0,0.00
2014-12-12,32.4,29.6,26.6,31.1,27.1,23.9,95,90,86,31.19,31.08,8,1,0,0.00
2014-12-13,40.8,36.8,32.5,39.5,35.5,31.2,97,95,91,31.14,30.92,10,3,0,0.00
2014-12-14,47.5,44.0,40.6,45.2,42.5,38.5,97,95,91,30.99,30.93,4,1,0,0.00
2014-12-15,52.3,47.0,43.0,46.1,44.2,40.6,97,90,78,30.95,30.69,5,0,0,0.02
2014-12-16,45.2,43.4,36.3,44.4,42.2,34.5,97,96,93,30.77,30.55,10,0,13,0.20
2014-12-17,35.9,30.4,27.1,34.1,26.4,21.9,95,85,76,31.09,30.77,18,4,18,0.02
2014-12-18,30.6,28.9,25.6,27.8,25.7,21.5,92,88,83,31.20,31.09,0,0,0,0.00
2014-12-19,31.2,25.4,18.7,21.6,20.1,16.3,90,80,64,31.31,31.20,1,0,0,0.00
2014-12-20,32.6,23.2,15.8,25.4,19.7,13.9,95,86,71,31.32,31.25,0,0,0,0.00
2014-12-21,35.9,30.2,20.0,30.1,26.1,18.1,94,85,76,31.28,31.13,3,0,0,0.00
2014-12-22,39.1,32.8,25.8,32.0,27.7,23.0,90,82,68,31.13,30.81,3,0,0,0.02
2014-12-23,47.1,40.1,34.0,45.7,38.9,32.1,97,96,91,30.81,30.66,3,0,0,0.24
2014-12-24,42.8,38.6,32.8,42.3,37.9,31.9,98,97,96,30.69,30.10,7,1,0,1.12
2014-12-25,37.2,35.2,31.5,34.1,32.0,29.4,97,88,81,31.01,30.33,14,2,16,0.17
2014-12-26,46.9,37.9,31.1,39.6,34.6,29.3,100,88,73,31.04,30.96,2,0,0,0.00
2014-12-27,49.1,42.9,36.9,46.0,39.9,32.3,95,89,78,31.00,30.74,16,2,23,0.01
2014-12-28,36.8,32.0,27.1,32.9,26.2,18.9,90,79,67,31.17,30.88,8,0,12,0.00
2014-12-29,28.0,24.9,18.1,19.8,15.1,10.6,79,66,51,31.44,31.17,2,0,0,0.00
2014-12-30,22.3,17.3,13.7,10.8,7.8,5.1,81,66,52,31.57,31.44,9,1,0,0.00
2014-12-31,21.0,15.9,13.1,13.7,7.4,4.2,80,69,61,31.48,30.99,17,3,18,0.00
2015-1-1,29.6,25.7,21.7,24.6,19.1,13.1,85,75,68,31.01,30.78,17,5,21,0.00
2015-1-2,31.5,25.9,22.5,19.8,18.2,17.2,84,73,56,31.30,31.01,8,0,12,0.00